Time;durP1;ratioP1;P1;durP2;ratioP2;P2;SDS_P1;SDS_P2;PMS_P1;PMS_P2;Temp;Humidity;BMP_temperature;BMP_pressure;BME280_temperature;BME280_humidity;BME280_pressure;Samples;Min_cycle;Max_cycle;Signal;HPM_P1;HPM_P2
2022/02/15 00:00:23;;;;;;;1.85;0.80;;;19.40;59.50;;;;;;5033728;28;20476;-71
2022/02/15 00:02:49;;;;;;;1.88;0.88;;;19.30;59.40;;;;;;5034116;28;20029;-71
2022/02/15 00:05:15;;;;;;;1.50;0.70;;;19.30;59.50;;;;;;5016231;28;20033;-71
2022/02/15 00:07:40;;;;;;;1.20;0.68;;;19.30;60.50;;;;;;5015702;28;20510;-71
2022/02/15 00:10:08;;;;;;;1.92;0.70;;;19.30;59.50;;;;;;5016137;28;20059;-71
2022/02/15 00:12:34;;;;;;;2.38;0.93;;;19.30;59.50;;;;;;5016325;28;20021;-71
2022/02/15 00:15:00;;;;;;;2.40;0.70;;;19.30;59.50;;;;;;4999378;28;20026;-71
2022/02/15 00:17:26;;;;;;;1.15;0.70;;;19.30;59.50;;;;;;5033665;28;20368;-71
2022/02/15 00:19:51;;;;;;;2.10;0.90;;;19.30;59.50;;;;;;5016275;28;20029;-71
2022/02/15 00:22:17;;;;;;;1.38;0.75;;;19.20;59.50;;;;;;5033365;28;20102;-71
2022/02/15 00:24:42;;;;;;;0.82;0.65;;;19.20;59.50;;;;;;5033485;28;20420;-71
2022/02/15 00:27:08;;;;;;;1.10;0.70;;;19.20;59.50;;;;;;5015959;28;20036;-70
2022/02/15 00:29:34;;;;;;;1.58;0.52;;;19.20;59.60;;;;;;5033165;28;20438;-70
2022/02/15 00:31:59;;;;;;;1.02;0.88;;;19.20;59.60;;;;;;5033400;28;20109;-70
2022/02/15 00:34:25;;;;;;;1.30;0.73;;;19.20;59.60;;;;;;5015667;28;20017;-70
2022/02/15 00:36:51;;;;;;;1.23;0.60;;;19.20;59.70;;;;;;5033276;28;20143;-70
2022/02/15 00:39:16;;;;;;;2.78;0.55;;;19.20;59.70;;;;;;5033483;28;20061;-70
2022/02/15 00:41:42;;;;;;;2.60;0.90;;;19.20;59.70;;;;;;5033212;28;20030;-70
2022/02/15 00:44:07;;;;;;;1.48;0.90;;;19.10;60.70;;;;;;5015170;28;20030;-70
2022/02/15 00:46:33;;;;;;;1.58;0.60;;;19.10;59.70;;;;;;5033207;28;20025;-70
2022/02/15 00:48:59;;;;;;;1.48;0.80;;;19.10;59.70;;;;;;5015532;28;20495;-71
2022/02/15 00:51:24;;;;;;;1.77;0.60;;;19.10;59.80;;;;;;5033020;28;20031;-70
2022/02/15 00:53:50;;;;;;;0.93;0.70;;;19.10;59.80;;;;;;5032719;28;20079;-70
2022/02/15 00:56:15;;;;;;;1.70;0.68;;;19.10;59.80;;;;;;5032934;28;20051;-71
2022/02/15 00:58:41;;;;;;;1.77;0.63;;;19.10;59.80;;;;;;5032668;28;20484;-71
2022/02/15 01:01:07;;;;;;;2.15;0.68;;;19.10;59.80;;;;;;5015265;28;20036;-71
2022/02/15 01:03:32;;;;;;;1.42;0.60;;;19.00;59.80;;;;;;5032822;28;20026;-71
2022/02/15 01:05:59;;;;;;;1.30;0.77;;;19.00;59.90;;;;;;5032989;28;20029;-71
2022/02/15 01:08:25;;;;;;;1.10;0.60;;;19.00;59.90;;;;;;5026043;28;20049;-71
2022/02/15 01:10:51;;;;;;;2.63;0.75;;;19.00;59.90;;;;;;4995538;28;20034;-71
2022/02/15 01:13:17;;;;;;;1.13;0.60;;;19.00;59.90;;;;;;5012640;28;20033;-71
2022/02/15 01:15:43;;;;;;;0.82;0.55;;;19.00;60.00;;;;;;4975829;28;20058;-71
2022/02/15 01:18:08;;;;;;;2.60;0.70;;;19.00;60.00;;;;;;4992941;28;20022;-71
2022/02/15 01:20:34;;;;;;;0.75;0.50;;;19.00;60.00;;;;;;4991882;28;20026;-71
2022/02/15 01:23:00;;;;;;;1.92;0.75;;;18.90;60.00;;;;;;4993120;28;20030;-71
2022/02/15 01:25:26;;;;;;;2.45;0.60;;;18.90;60.00;;;;;;4993015;28;20041;-71
2022/02/15 01:27:53;;;;;;;1.10;0.68;;;18.90;60.00;;;;;;4993053;28;20027;-71
2022/02/15 01:30:18;;;;;;;0.95;0.60;;;18.90;60.00;;;;;;4993062;28;20089;-71
2022/02/15 01:32:44;;;;;;;0.77;0.47;;;18.90;60.10;;;;;;4992223;28;20466;-71
2022/02/15 01:35:10;;;;;;;1.45;0.70;;;18.90;60.00;;;;;;4993235;28;20022;-71
2022/02/15 01:37:35;;;;;;;1.65;0.60;;;18.90;60.10;;;;;;4993084;28;20022;-71
2022/02/15 01:40:01;;;;;;;1.38;0.50;;;18.90;60.30;;;;;;4993052;28;20396;-70
2022/02/15 01:42:27;;;;;;;2.78;0.65;;;18.80;60.20;;;;;;4992676;28;20500;-70
2022/02/15 01:44:52;;;;;;;0.73;0.52;;;18.90;60.20;;;;;;4993083;28;20037;-70
2022/02/15 01:47:26;;;;;;;1.17;0.70;;;18.80;60.20;;;;;;4992761;28;20100;-70
2022/02/15 01:49:52;;;;;;;2.10;0.70;;;18.80;60.20;;;;;;4991877;28;20069;-70
2022/02/15 01:52:20;;;;;;;1.00;0.47;;;18.80;60.20;;;;;;4997386;28;20033;-70
2022/02/15 01:55:05;;;;;;;1.25;0.60;;;18.80;60.20;;;;;;5011359;28;20018;-70
2022/02/15 01:57:30;;;;;;;1.15;0.60;;;18.80;60.20;;;;;;4997037;28;20030;-70
2022/02/15 01:59:56;;;;;;;1.35;0.60;;;18.80;60.30;;;;;;5011546;28;20033;-70
2022/02/15 02:02:22;;;;;;;1.40;0.50;;;18.70;60.20;;;;;;4994859;28;20037;-70
2022/02/15 02:07:32;;;;;;;1.90;0.50;;;18.70;60.30;;;;;;5012237;28;20400;-70
2022/02/15 02:09:57;;;;;;;0.93;0.57;;;18.70;60.40;;;;;;4993445;28;20472;-71
2022/02/15 02:12:23;;;;;;;0.75;0.40;;;18.70;60.40;;;;;;4992373;28;20026;-70
2022/02/15 02:15:03;;;;;;;0.68;0.47;;;18.70;60.40;;;;;;4992648;28;20034;-70
2022/02/15 02:17:28;;;;;;;1.52;0.60;;;18.70;60.40;;;;;;4992520;28;20062;-70
2022/02/15 02:19:55;;;;;;;2.95;0.60;;;18.60;60.40;;;;;;4992754;28;20062;-70
2022/02/15 02:22:27;;;;;;;0.93;0.50;;;18.60;60.40;;;;;;4991353;28;20476;-70
2022/02/15 02:24:53;;;;;;;1.67;0.50;;;18.60;60.40;;;;;;4991630;28;20027;-70
2022/02/15 02:27:29;;;;;;;1.95;0.52;;;18.60;61.60;;;;;;4992169;28;20037;-70
2022/02/15 02:29:55;;;;;;;0.90;0.40;;;18.60;60.50;;;;;;4992296;28;20030;-71
2022/02/15 02:32:21;;;;;;;0.80;0.50;;;18.60;60.50;;;;;;4996078;28;20076;-71
2022/02/15 02:34:47;;;;;;;1.65;0.50;;;18.60;60.50;;;;;;4995196;28;20026;-71
2022/02/15 02:37:13;;;;;;;0.98;0.50;;;18.60;60.50;;;;;;4996321;28;20022;-71
2022/02/15 02:39:49;;;;;;;1.10;0.57;;;18.60;60.60;;;;;;4994800;28;20493;-71
2022/02/15 02:42:17;;;;;;;1.67;0.77;;;18.60;60.60;;;;;;4996106;28;20139;-71
2022/02/15 02:44:43;;;;;;;0.60;0.50;;;18.50;60.50;;;;;;4995193;28;20022;-71
2022/02/15 02:47:08;;;;;;;1.20;0.50;;;18.50;60.60;;;;;;4996108;28;20031;-71
2022/02/15 02:49:34;;;;;;;1.55;0.50;;;18.60;60.60;;;;;;4996002;28;20026;-71
2022/02/15 02:52:00;;;;;;;0.85;0.70;;;18.50;60.60;;;;;;4998131;28;20105;-71
2022/02/15 02:54:26;;;;;;;0.77;0.50;;;18.50;60.60;;;;;;4997740;28;20392;-71
2022/02/15 02:56:52;;;;;;;1.23;0.70;;;18.50;60.70;;;;;;5014393;28;20392;-71
2022/02/15 02:59:17;;;;;;;1.45;0.65;;;18.50;60.70;;;;;;4998048;28;20064;-71
2022/02/15 03:01:43;;;;;;;0.60;0.40;;;18.50;60.70;;;;;;5014187;28;20038;-71
2022/02/15 03:04:09;;;;;;;0.77;0.60;;;18.50;60.70;;;;;;5014323;28;20036;-71
2022/02/15 03:06:34;;;;;;;1.05;0.50;;;18.50;60.70;;;;;;5015241;28;20030;-71
2022/02/15 03:09:00;;;;;;;0.60;0.40;;;18.40;60.70;;;;;;5002620;28;20057;-70
2022/02/15 03:11:26;;;;;;;0.60;0.47;;;18.50;60.80;;;;;;4994375;28;20038;-70
2022/02/15 03:13:51;;;;;;;1.10;0.65;;;18.50;60.80;;;;;;4995527;28;20026;-70
2022/02/15 03:16:17;;;;;;;0.52;0.52;;;18.50;60.90;;;;;;5006183;28;20514;-71
2022/02/15 03:18:42;;;;;;;1.50;0.70;;;18.40;60.90;;;;;;5015208;28;20014;-71
2022/02/15 03:21:08;;;;;;;1.38;0.50;;;18.40;60.80;;;;;;4997729;28;20072;-70
2022/02/15 03:23:34;;;;;;;0.63;0.43;;;18.40;60.80;;;;;;5014300;28;20105;-70
2022/02/15 03:25:59;;;;;;;1.30;0.50;;;18.40;60.90;;;;;;5015044;28;20488;-71
2022/02/15 03:28:25;;;;;;;1.23;0.75;;;18.40;60.90;;;;;;5014818;28;20025;-71
2022/02/15 03:30:51;;;;;;;1.48;0.65;;;18.40;60.90;;;;;;5014882;28;20030;-71
2022/02/15 03:33:16;;;;;;;0.82;0.52;;;18.40;60.90;;;;;;5014632;28;20022;-71
2022/02/15 03:35:42;;;;;;;3.55;0.60;;;18.40;60.90;;;;;;4997213;28;20029;-71
2022/02/15 03:38:08;;;;;;;0.65;0.55;;;18.40;60.90;;;;;;5014414;28;20029;-70
2022/02/15 03:43:17;;;;;;;1.27;0.60;;;18.40;61.00;;;;;;5013946;28;20037;-71
2022/02/15 03:45:43;;;;;;;2.25;0.40;;;18.30;61.00;;;;;;4997098;28;20034;-71
2022/02/15 03:48:08;;;;;;;1.95;0.60;;;18.30;61.00;;;;;;5014611;28;20033;-70
2022/02/15 03:50:34;;;;;;;4.53;0.57;;;18.30;61.00;;;;;;4996877;28;20031;-71
2022/02/15 03:53:00;;;;;;;0.60;0.52;;;18.30;62.10;;;;;;5025594;28;20032;-70
2022/02/15 03:55:26;;;;;;;1.45;0.60;;;18.30;61.10;;;;;;5034090;28;20396;-70
2022/02/15 03:57:51;;;;;;;1.95;0.77;;;18.30;61.10;;;;;;5016536;28;20026;-71
2022/02/15 04:00:17;;;;;;;0.82;0.50;;;18.30;61.10;;;;;;5016355;28;20538;-71
2022/02/15 04:02:43;;;;;;;2.47;0.50;;;18.30;61.10;;;;;;5016358;28;20719;-70
2022/02/15 04:05:08;;;;;;;1.65;0.70;;;18.30;61.10;;;;;;5034212;28;20463;-71
2022/02/15 04:07:34;;;;;;;0.90;0.50;;;18.30;61.20;;;;;;5033463;28;20076;-71
2022/02/15 04:10:00;;;;;;;1.70;0.50;;;18.30;61.20;;;;;;5016310;28;20033;-71
2022/02/15 04:12:25;;;;;;;1.40;0.47;;;18.20;61.20;;;;;;5015874;28;20518;-71
2022/02/15 04:14:51;;;;;;;1.52;0.50;;;18.30;61.20;;;;;;5033925;28;20032;-71
2022/02/15 04:17:17;;;;;;;0.88;0.50;;;18.20;61.20;;;;;;5033600;28;20631;-71
2022/02/15 04:19:42;;;;;;;1.33;0.85;;;18.20;61.10;;;;;;5033758;28;20029;-71
2022/02/15 04:22:08;;;;;;;1.92;0.55;;;18.20;61.20;;;;;;5033206;28;20018;-71
2022/02/15 04:24:34;;;;;;;0.60;0.50;;;18.20;61.20;;;;;;5015921;28;20460;-71
2022/02/15 04:26:59;;;;;;;0.60;0.50;;;18.20;61.20;;;;;;5033557;28;20096;-71
2022/02/15 04:29:26;;;;;;;0.82;0.40;;;18.20;61.20;;;;;;5015872;28;20434;-71
2022/02/15 04:31:52;;;;;;;0.60;0.30;;;18.20;61.20;;;;;;5033686;28;20053;-71
2022/02/15 04:34:18;;;;;;;0.82;0.43;;;18.20;61.20;;;;;;5015784;28;20052;-71
2022/02/15 04:36:43;;;;;;;2.72;0.60;;;18.20;61.20;;;;;;5033374;28;20021;-71
2022/02/15 04:39:09;;;;;;;0.75;0.55;;;18.20;61.20;;;;;;5033490;28;20032;-71
2022/02/15 04:41:34;;;;;;;1.05;0.40;;;18.20;61.30;;;;;;5033206;28;20018;-71
2022/02/15 04:44:00;;;;;;;1.00;0.50;;;18.20;61.30;;;;;;5033442;28;20408;-71
2022/02/15 04:46:26;;;;;;;0.70;0.50;;;18.20;61.30;;;;;;5015597;28;20022;-71
2022/02/15 04:48:51;;;;;;;0.85;0.40;;;18.10;61.30;;;;;;5033310;28;20056;-71
2022/02/15 04:51:17;;;;;;;0.73;0.40;;;18.10;61.30;;;;;;5033034;28;20033;-71
2022/02/15 04:53:43;;;;;;;0.90;0.60;;;18.10;61.40;;;;;;5032516;28;20065;-70
2022/02/15 04:56:08;;;;;;;0.85;0.50;;;18.10;61.40;;;;;;5015577;28;20017;-70
2022/02/15 04:58:34;;;;;;;3.33;0.50;;;18.10;61.40;;;;;;5032900;28;20373;-71
2022/02/15 05:00:59;;;;;;;1.17;0.52;;;18.10;61.40;;;;;;5032963;28;20053;-71
2022/02/15 05:03:25;;;;;;;0.45;0.40;;;18.10;61.40;;;;;;5032904;28;20025;-71
2022/02/15 05:05:51;;;;;;;0.73;0.50;;;18.10;61.40;;;;;;5032727;28;20044;-71
2022/02/15 05:08:16;;;;;;;0.38;0.30;;;18.10;61.50;;;;;;5032707;28;20025;-71
2022/02/15 05:10:42;;;;;;;0.95;0.50;;;18.10;61.40;;;;;;5015204;28;20025;-70
2022/02/15 05:13:11;;;;;;;1.02;0.50;;;18.10;61.50;;;;;;5032803;28;20468;-71
2022/02/15 05:15:37;;;;;;;0.63;0.30;;;18.10;61.50;;;;;;5032386;28;20112;-70
2022/02/15 05:18:04;;;;;;;1.30;0.60;;;18.10;61.50;;;;;;5032715;28;20041;-71
2022/02/15 05:20:30;;;;;;;1.30;0.45;;;18.10;61.50;;;;;;5032312;28;20026;-71
2022/02/15 05:22:56;;;;;;;0.65;0.40;;;18.10;61.50;;;;;;5014983;28;20032;-71
2022/02/15 05:25:21;;;;;;;1.00;0.43;;;18.10;61.60;;;;;;5015037;28;20034;-71
2022/02/15 05:27:47;;;;;;;0.45;0.30;;;18.00;61.50;;;;;;5032652;28;20125;-71
2022/02/15 05:30:13;;;;;;;1.60;0.50;;;18.00;61.50;;;;;;5015098;28;20033;-71
2022/02/15 05:32:38;;;;;;;0.90;0.50;;;18.00;61.50;;;;;;5032152;28;20021;-71
2022/02/15 05:35:06;;;;;;;0.60;0.32;;;18.00;61.60;;;;;;5014593;28;20060;-71
2022/02/15 05:37:31;;;;;;;0.90;0.40;;;18.00;61.60;;;;;;5015053;28;20085;-71
2022/02/15 05:39:57;;;;;;;0.68;0.43;;;18.00;61.60;;;;;;5032496;28;20519;-71
2022/02/15 05:42:23;;;;;;;0.77;0.50;;;18.00;61.60;;;;;;5032430;28;20076;-71
2022/02/15 05:44:48;;;;;;;1.88;0.40;;;18.00;61.60;;;;;;5032220;28;20034;-70
2022/02/15 05:47:14;;;;;;;0.75;0.32;;;18.00;61.60;;;;;;5032382;28;20096;-70
2022/02/15 05:52:23;;;;;;;0.85;0.30;;;18.00;61.70;;;;;;5010528;28;20073;-70
2022/02/15 05:54:49;;;;;;;1.02;0.57;;;18.00;61.70;;;;;;5012420;28;20443;-71
2022/02/15 05:57:15;;;;;;;1.13;0.40;;;17.90;61.70;;;;;;5012589;28;20045;-71
2022/02/15 05:59:41;;;;;;;0.95;0.40;;;18.00;61.70;;;;;;5012311;28;20022;-70
2022/02/15 06:02:06;;;;;;;1.33;0.45;;;17.90;61.70;;;;;;4995068;28;20492;-71
2022/02/15 06:04:32;;;;;;;0.73;0.30;;;17.90;61.70;;;;;;5012191;28;20022;-71
2022/02/15 06:06:58;;;;;;;1.75;0.55;;;17.90;61.80;;;;;;5016515;28;20480;-71
2022/02/15 06:09:23;;;;;;;0.73;0.47;;;17.90;61.70;;;;;;5016273;28;20061;-71
2022/02/15 06:11:49;;;;;;;1.35;0.35;;;17.90;61.80;;;;;;5016249;28;20054;-71
2022/02/15 06:14:14;;;;;;;0.73;0.40;;;17.90;61.80;;;;;;5016519;28;20439;-71
2022/02/15 06:16:40;;;;;;;1.42;0.40;;;17.90;61.90;;;;;;5016182;28;20069;-71
2022/02/15 06:19:06;;;;;;;3.45;0.60;;;17.90;61.80;;;;;;5015849;28;20559;-71
2022/02/15 06:21:32;;;;;;;0.43;0.30;;;17.90;61.80;;;;;;5016196;28;20018;-71
2022/02/15 06:23:58;;;;;;;0.30;0.30;;;17.90;61.80;;;;;;5015095;28;20443;-71
2022/02/15 06:26:24;;;;;;;0.52;0.38;;;17.90;61.90;;;;;;5016286;28;20117;-71
2022/02/15 06:28:49;;;;;;;0.90;0.50;;;17.90;62.00;;;;;;5015880;28;20101;-70
2022/02/15 06:31:15;;;;;;;0.73;0.32;;;17.90;61.90;;;;;;5016107;28;20021;-71
2022/02/15 06:33:41;;;;;;;0.82;0.30;;;17.90;61.90;;;;;;5015498;28;20041;-70
2022/02/15 06:36:06;;;;;;;0.40;0.30;;;17.90;62.00;;;;;;5014794;28;20508;-71
2022/02/15 06:38:32;;;;;;;1.02;0.50;;;17.90;62.00;;;;;;5027605;28;20026;-71
2022/02/15 06:40:58;;;;;;;0.90;0.50;;;17.90;62.00;;;;;;5030770;28;20072;-71
2022/02/15 06:43:24;;;;;;;1.02;0.50;;;17.90;62.00;;;;;;5015393;28;20033;-70
2022/02/15 06:45:49;;;;;;;1.27;0.63;;;17.90;62.00;;;;;;5033186;28;20114;-70
2022/02/15 06:48:15;;;;;;;2.42;0.47;;;17.90;62.00;;;;;;5031778;28;20075;-70
2022/02/15 06:50:40;;;;;;;0.93;0.50;;;17.80;62.00;;;;;;5032623;28;20026;-71
2022/02/15 06:53:06;;;;;;;0.60;0.30;;;17.90;62.00;;;;;;5015035;28;20060;-70
2022/02/15 06:55:32;;;;;;;1.00;0.57;;;17.90;62.10;;;;;;5033480;28;20028;-70
2022/02/15 06:57:57;;;;;;;1.33;0.30;;;17.80;62.00;;;;;;5032924;28;20479;-70
2022/02/15 07:00:23;;;;;;;0.50;0.30;;;17.80;62.00;;;;;;5033125;28;20096;-70
2022/02/15 07:02:49;;;;;;;0.57;0.20;;;17.80;62.10;;;;;;5032380;28;20082;-70
2022/02/15 07:05:14;;;;;;;1.23;0.40;;;17.80;62.10;;;;;;5033154;28;20052;-70
2022/02/15 07:07:40;;;;;;;1.27;0.30;;;17.80;62.00;;;;;;5032954;28;20080;-70
2022/02/15 07:10:06;;;;;;;0.20;0.20;;;17.90;62.10;;;;;;5031899;28;20025;-71
2022/02/15 07:12:32;;;;;;;0.85;0.32;;;17.90;62.10;;;;;;5013376;28;20025;-70
2022/02/15 07:14:58;;;;;;;0.68;0.30;;;17.90;62.10;;;;;;5032587;28;20021;-70
2022/02/15 07:17:27;;;;;;;0.55;0.30;;;17.90;62.00;;;;;;5031485;28;20496;-70
2022/02/15 07:19:53;;;;;;;0.80;0.22;;;17.90;62.00;;;;;;5031568;28;20075;-70
2022/02/15 07:22:19;;;;;;;0.20;0.20;;;17.90;62.00;;;;;;5014892;28;20410;-70
2022/02/15 07:24:44;;;;;;;0.20;0.20;;;17.90;62.00;;;;;;5032633;28;20495;-70
2022/02/15 07:27:10;;;;;;;0.95;0.40;;;18.00;62.00;;;;;;5032405;28;20018;-70
2022/02/15 07:29:36;;;;;;;0.73;0.30;;;18.00;62.00;;;;;;5032207;28;20021;-70
2022/02/15 07:32:01;;;;;;;0.40;0.25;;;18.00;62.00;;;;;;5032394;28;20053;-69
2022/02/15 07:34:27;;;;;;;2.28;0.60;;;18.00;62.00;;;;;;5033681;28;20030;-71
2022/02/15 07:36:52;;;;;;;4.07;1.00;;;18.00;62.00;;;;;;5034120;28;20025;-71
2022/02/15 07:39:18;;;;;;;5.05;1.30;;;18.00;62.00;;;;;;5033919;28;20033;-71
2022/02/15 07:41:44;;;;;;;5.70;1.05;;;18.10;62.10;;;;;;5033747;28;20033;-71
2022/02/15 07:44:09;;;;;;;3.55;0.90;;;18.10;62.10;;;;;;5034020;28;20029;-71
2022/02/15 07:46:35;;;;;;;5.13;1.08;;;18.10;62.00;;;;;;5034474;28;20030;-72
2022/02/15 07:49:01;;;;;;;3.63;1.13;;;18.10;62.10;;;;;;5016333;28;20107;-71
2022/02/15 07:51:27;;;;;;;3.53;1.00;;;18.10;62.00;;;;;;5034276;28;20491;-71
2022/02/15 07:53:52;;;;;;;4.28;1.05;;;18.10;62.00;;;;;;5033820;28;20039;-71
2022/02/15 07:56:18;;;;;;;3.90;0.85;;;18.20;62.10;;;;;;5034252;28;20061;-71
2022/02/15 07:58:43;;;;;;;5.10;1.27;;;18.20;62.00;;;;;;5033795;28;20419;-71
2022/02/15 08:01:09;;;;;;;5.00;1.08;;;18.20;62.00;;;;;;5016417;28;20017;-71
2022/02/15 08:03:35;;;;;;;3.75;1.05;;;18.20;62.00;;;;;;5034013;28;20060;-71
2022/02/15 08:06:01;;;;;;;2.92;1.00;;;18.20;62.10;;;;;;5006419;28;20065;-71
2022/02/15 08:08:27;;;;;;;3.75;1.20;;;18.20;62.00;;;;;;5031633;28;20423;-71
2022/02/15 08:10:56;;;;;;;3.78;1.00;;;18.20;62.00;;;;;;5014023;28;20037;-71
2022/02/15 08:13:22;;;;;;;3.55;1.27;;;18.20;62.00;;;;;;5013622;28;20022;-71
2022/02/15 08:15:49;;;;;;;4.68;1.45;;;18.20;62.00;;;;;;5012580;28;20504;-71
2022/02/15 08:18:14;;;;;;;5.13;1.27;;;18.30;62.10;;;;;;5013080;28;20060;-71
2022/02/15 08:20:40;;;;;;;3.47;1.17;;;18.30;62.00;;;;;;4996670;28;20049;-71
2022/02/15 08:23:06;;;;;;;2.50;0.88;;;18.20;63.00;;;;;;5012663;28;20527;-71
2022/02/15 08:25:31;;;;;;;2.15;0.95;;;18.30;62.00;;;;;;5013845;28;20104;-71
2022/02/15 08:27:57;;;;;;;2.65;0.85;;;18.20;61.90;;;;;;5011888;28;20037;-71
2022/02/15 08:30:23;;;;;;;4.80;0.70;;;18.30;62.00;;;;;;5012583;28;20033;-71
2022/02/15 08:32:49;;;;;;;3.40;1.40;;;18.30;62.00;;;;;;5012472;28;20041;-71
2022/02/15 08:35:15;;;;;;;2.80;1.10;;;18.30;62.00;;;;;;5013875;28;20029;-71
2022/02/15 08:37:40;;;;;;;3.95;0.98;;;18.30;62.00;;;;;;5012626;28;20022;-71
2022/02/15 08:40:07;;;;;;;1.40;0.77;;;18.30;62.00;;;;;;5013403;28;20022;-71
2022/02/15 08:42:32;;;;;;;5.80;1.00;;;18.30;62.00;;;;;;5013462;28;20104;-71
2022/02/15 08:44:58;;;;;;;3.40;0.88;;;18.30;62.00;;;;;;5012270;28;20108;-71
2022/02/15 08:47:24;;;;;;;4.50;1.13;;;18.30;62.00;;;;;;5012520;28;20030;-71
2022/02/15 08:49:53;;;;;;;3.47;0.90;;;18.30;62.00;;;;;;5013473;28;20421;-71
2022/02/15 08:52:26;;;;;;;4.88;1.00;;;18.40;62.00;;;;;;5019223;28;20431;-71
2022/02/15 08:54:52;;;;;;;2.97;0.85;;;18.30;61.90;;;;;;5032919;28;20018;-71
2022/02/15 08:57:18;;;;;;;1.88;1.00;;;18.30;62.00;;;;;;5032846;28;20033;-71
2022/02/15 08:59:44;;;;;;;2.53;0.70;;;18.30;62.00;;;;;;5015574;28;20491;-71
2022/02/15 09:02:09;;;;;;;1.38;0.70;;;18.40;62.00;;;;;;5015161;28;20026;-71
2022/02/15 09:04:36;;;;;;;3.05;1.25;;;18.30;62.00;;;;;;4999206;28;20021;-71
2022/02/15 09:07:03;;;;;;;1.42;0.77;;;18.30;62.00;;;;;;5015239;28;20502;-71
2022/02/15 09:09:28;;;;;;;0.75;0.63;;;18.40;62.00;;;;;;5015149;28;20403;-71
2022/02/15 09:11:54;;;;;;;3.25;0.75;;;18.40;62.00;;;;;;5014901;28;20022;-71
2022/02/15 09:14:20;;;;;;;1.92;0.88;;;18.40;62.00;;;;;;5014847;28;20488;-71
2022/02/15 09:16:45;;;;;;;1.85;0.70;;;18.40;62.00;;;;;;5032534;28;20053;-71
2022/02/15 09:19:14;;;;;;;2.08;0.60;;;18.40;61.90;;;;;;5032716;28;20044;-71
2022/02/15 09:21:40;;;;;;;1.48;0.85;;;18.40;61.90;;;;;;5032765;28;20021;-71
2022/02/15 09:24:06;;;;;;;1.23;0.68;;;18.40;61.90;;;;;;5014833;28;20029;-71
2022/02/15 09:26:32;;;;;;;2.80;0.70;;;18.40;61.90;;;;;;5014633;28;20075;-71
2022/02/15 09:28:58;;;;;;;2.20;0.80;;;18.40;61.90;;;;;;5014874;28;20515;-71
2022/02/15 09:31:24;;;;;;;1.42;0.98;;;18.40;61.90;;;;;;5014899;28;20407;-71
2022/02/15 09:33:52;;;;;;;1.58;0.55;;;18.40;61.90;;;;;;5014861;28;20105;-71
2022/02/15 09:36:21;;;;;;;1.27;0.75;;;18.40;61.90;;;;;;5032460;28;20044;-71
2022/02/15 09:38:47;;;;;;;1.65;0.80;;;18.40;61.90;;;;;;5015054;28;20018;-71
2022/02/15 09:41:13;;;;;;;2.75;0.90;;;18.40;61.90;;;;;;5031434;28;20391;-71
2022/02/15 09:43:39;;;;;;;1.05;0.75;;;18.40;61.90;;;;;;5032344;28;20026;-71
2022/02/15 09:46:14;;;;;;;1.33;0.80;;;18.40;61.90;;;;;;5014623;28;20553;-71
2022/02/15 09:48:40;;;;;;;1.25;0.70;;;18.50;61.90;;;;;;5014968;28;20566;-71
2022/02/15 09:51:06;;;;;;;2.10;0.70;;;18.40;61.90;;;;;;5014709;28;20025;-71
2022/02/15 09:53:32;;;;;;;1.95;0.68;;;18.40;61.90;;;;;;4998848;28;20029;-71
2022/02/15 09:55:58;;;;;;;1.17;0.47;;;18.40;61.90;;;;;;4994578;28;20435;-71
2022/02/15 09:58:24;;;;;;;1.40;0.77;;;18.40;61.90;;;;;;4994977;28;20018;-71
2022/02/15 10:00:50;;;;;;;3.03;0.70;;;18.50;61.90;;;;;;5012505;28;20037;-71
2022/02/15 10:03:16;;;;;;;2.17;0.73;;;18.50;61.90;;;;;;4995104;28;20026;-71
2022/02/15 10:05:49;;;;;;;0.93;0.50;;;18.40;61.90;;;;;;5012409;28;20033;-71
2022/02/15 10:08:23;;;;;;;1.73;0.70;;;18.50;61.80;;;;;;4995347;28;20026;-71
2022/02/15 10:10:49;;;;;;;0.52;0.40;;;18.50;61.80;;;;;;4994793;28;20026;-71
2022/02/15 10:13:14;;;;;;;1.80;0.70;;;18.40;61.80;;;;;;5001228;28;20051;-71
2022/02/15 10:15:41;;;;;;;1.50;0.70;;;18.40;61.90;;;;;;5014253;28;20052;-71
2022/02/15 10:18:08;;;;;;;2.25;0.73;;;18.40;61.90;;;;;;5031761;28;20480;-71
2022/02/15 10:20:34;;;;;;;1.38;0.60;;;18.40;61.80;;;;;;5032216;28;20534;-71
2022/02/15 10:23:17;;;;;;;1.90;0.40;;;18.40;61.80;;;;;;5031907;28;20017;-71
2022/02/15 10:25:43;;;;;;;2.22;0.57;;;18.50;61.80;;;;;;5013924;28;20029;-71
2022/02/15 10:28:21;;;;;;;2.35;0.50;;;18.40;61.80;;;;;;5014250;28;20060;-71
2022/02/15 10:30:48;;;;;;;1.25;0.55;;;18.50;61.80;;;;;;5014537;28;20125;-71
2022/02/15 10:33:14;;;;;;;0.60;0.60;;;18.40;61.80;;;;;;5014182;28;20365;-71
2022/02/15 10:35:42;;;;;;;0.70;0.52;;;18.50;61.90;;;;;;5031852;28;20155;-71
2022/02/15 10:38:09;;;;;;;0.95;0.70;;;18.50;61.80;;;;;;5014303;28;20018;-71
2022/02/15 10:40:35;;;;;;;1.17;0.57;;;18.50;61.80;;;;;;5014311;28;20083;-71
2022/02/15 10:43:01;;;;;;;1.13;0.45;;;18.50;61.80;;;;;;5031649;28;20021;-71
2022/02/15 10:45:27;;;;;;;2.45;0.98;;;18.40;61.70;;;;;;5014520;28;20474;-71
2022/02/15 10:47:53;;;;;;;2.38;0.50;;;18.50;61.80;;;;;;5014418;28;20021;-71
2022/02/15 10:50:18;;;;;;;2.30;0.50;;;18.50;61.70;;;;;;5031471;28;20443;-71
2022/02/15 10:52:44;;;;;;;1.40;0.70;;;18.50;61.70;;;;;;5016773;28;20040;-71
2022/02/15 10:55:11;;;;;;;1.58;0.50;;;18.50;61.70;;;;;;5035191;28;20043;-71
2022/02/15 10:57:37;;;;;;;1.48;0.50;;;18.40;61.60;;;;;;5017931;28;20092;-71
2022/02/15 11:00:07;;;;;;;1.73;0.60;;;18.50;61.70;;;;;;5001387;28;20113;-71
2022/02/15 11:02:33;;;;;;;1.27;0.55;;;18.50;61.70;;;;;;5001996;28;20028;-71
2022/02/15 11:05:02;;;;;;;0.70;0.50;;;18.50;61.70;;;;;;5000964;28;20026;-71
2022/02/15 11:07:31;;;;;;;0.70;0.40;;;18.50;61.70;;;;;;5034843;28;20017;-71
2022/02/15 11:10:13;;;;;;;1.70;0.68;;;18.40;61.60;;;;;;5017832;28;20411;-71
2022/02/15 11:12:38;;;;;;;1.27;0.53;;;18.50;61.70;;;;;;5034913;28;20817;-71
2022/02/15 11:15:05;;;;;;;0.70;0.50;;;18.40;61.60;;;;;;5034632;28;20052;-71
2022/02/15 11:17:32;;;;;;;1.20;0.70;;;18.50;61.70;;;;;;5017214;28;20451;-71
2022/02/15 11:20:06;;;;;;;1.38;0.50;;;18.40;61.60;;;;;;5017560;28;20506;-71
2022/02/15 11:22:51;;;;;;;1.10;0.40;;;18.50;61.60;;;;;;5034607;28;20022;-71
2022/02/15 11:25:26;;;;;;;1.13;0.50;;;18.50;61.50;;;;;;5017328;28;20095;-71
2022/02/15 11:27:52;;;;;;;0.98;0.50;;;18.40;61.60;;;;;;5018675;28;20041;-71
2022/02/15 11:30:18;;;;;;;1.48;0.55;;;18.40;61.60;;;;;;5016978;28;20526;-71
2022/02/15 11:32:43;;;;;;;0.95;0.47;;;18.40;61.60;;;;;;5017050;28;20029;-71
2022/02/15 11:35:11;;;;;;;0.73;0.63;;;18.40;61.60;;;;;;5017178;28;20385;-71
2022/02/15 11:37:37;;;;;;;1.50;0.50;;;18.50;61.60;;;;;;5016640;28;20045;-71
2022/02/15 11:40:09;;;;;;;1.33;0.73;;;18.40;61.60;;;;;;5016998;28;20076;-71
2022/02/15 11:42:41;;;;;;;;;;;18.50;61.60;;;;;;5017243;28;20017;-71
2022/02/15 11:45:18;;;;;;;1.73;0.43;;;18.40;61.40;;;;;;5034402;28;20000;-71
2022/02/15 11:47:45;;;;;;;2.35;0.45;;;18.40;61.70;;;;;;5034388;28;20104;-71
2022/02/15 11:50:15;;;;;;;0.95;0.52;;;18.40;61.70;;;;;;5016605;28;20021;-71
2022/02/15 11:52:41;;;;;;;1.10;0.52;;;18.40;61.60;;;;;;5033853;28;20025;-71
2022/02/15 11:55:09;;;;;;;1.02;0.40;;;18.40;61.60;;;;;;5016584;28;20032;-71
2022/02/15 11:57:35;;;;;;;0.85;0.50;;;18.40;61.60;;;;;;5016751;28;20021;-71
2022/02/15 12:00:04;;;;;;;1.10;0.60;;;18.40;61.60;;;;;;5016627;28;20024;-71
2022/02/15 12:02:30;;;;;;;1.90;0.50;;;18.40;61.50;;;;;;5016273;28;20021;-71
2022/02/15 12:04:59;;;;;;;1.25;0.40;;;18.40;61.50;;;;;;5033937;28;20033;-71
2022/02/15 12:07:28;;;;;;;0.98;0.52;;;18.40;61.40;;;;;;5016108;28;20026;-71
2022/02/15 12:09:55;;;;;;;1.38;0.57;;;18.40;61.50;;;;;;5016564;28;20074;-71
2022/02/15 12:12:21;;;;;;;0.70;0.50;;;18.40;61.50;;;;;;5016030;28;20472;-71
2022/02/15 12:14:56;;;;;;;1.10;0.60;;;18.40;61.40;;;;;;5033636;28;20022;-71
2022/02/15 12:17:25;;;;;;;1.10;0.60;;;18.50;61.40;;;;;;4999734;28;20115;-71
2022/02/15 12:19:55;;;;;;;2.38;0.70;;;18.40;61.40;;;;;;5015871;28;20396;-71
2022/02/15 12:22:21;;;;;;;0.80;0.60;;;18.40;61.30;;;;;;5033534;28;20029;-71
2022/02/15 12:24:53;;;;;;;2.22;0.80;;;18.40;61.30;;;;;;5015992;28;20021;-71
2022/02/15 12:27:19;;;;;;;0.75;0.30;;;18.40;61.30;;;;;;5016468;28;20030;-71
2022/02/15 12:29:52;;;;;;;1.48;0.60;;;18.40;61.30;;;;;;5034002;28;20021;-71
2022/02/15 12:32:25;;;;;;;0.93;0.40;;;18.40;61.30;;;;;;5033461;28;20026;-71
2022/02/15 12:34:51;;;;;;;1.05;0.40;;;18.50;61.30;;;;;;5015924;28;20029;-71
2022/02/15 12:37:22;;;;;;;0.80;0.52;;;18.40;61.30;;;;;;5015633;28;20052;-71
2022/02/15 12:39:51;;;;;;;1.17;0.50;;;18.50;61.30;;;;;;5000115;28;20026;-71
2022/02/15 12:42:17;;;;;;;0.60;0.40;;;18.50;61.30;;;;;;5033182;28;20511;-71
2022/02/15 12:44:53;;;;;;;1.05;0.47;;;18.40;61.30;;;;;;5033365;28;20148;-71
2022/02/15 12:47:19;;;;;;;0.90;0.40;;;18.40;61.20;;;;;;5017186;28;20116;-71
2022/02/15 12:49:44;;;;;;;1.55;0.52;;;18.40;61.30;;;;;;5032917;28;20112;-71
2022/02/15 12:52:11;;;;;;;0.63;0.52;;;18.40;61.30;;;;;;5032644;28;20036;-71